sensor_id;sensor_type;location;lat;lon;timestamp;P1;durP1;ratioP1;P2;durP2;ratioP2
3781;SDS011;6881;49.962;7.718;2022-12-29T00:01:57;3.73;;;3.30;;
3781;SDS011;6881;49.962;7.718;2022-12-29T00:04:22;4.47;;;3.40;;
3781;SDS011;6881;49.962;7.718;2022-12-29T00:06:48;3.97;;;3.57;;
3781;SDS011;6881;49.962;7.718;2022-12-29T00:09:14;5.50;;;3.00;;
3781;SDS011;6881;49.962;7.718;2022-12-29T00:11:41;3.37;;;3.07;;
3781;SDS011;6881;49.962;7.718;2022-12-29T00:14:08;5.33;;;2.80;;
3781;SDS011;6881;49.962;7.718;2022-12-29T00:16:53;4.40;;;3.13;;
3781;SDS011;6881;49.962;7.718;2022-12-29T00:19:18;2.50;;;2.30;;
3781;SDS011;6881;49.962;7.718;2022-12-29T00:22:03;3.87;;;3.23;;
3781;SDS011;6881;49.962;7.718;2022-12-29T00:24:46;4.80;;;2.60;;
3781;SDS011;6881;49.962;7.718;2022-12-29T00:27:31;3.63;;;2.67;;
3781;SDS011;6881;49.962;7.718;2022-12-29T00:30:16;3.83;;;2.97;;
3781;SDS011;6881;49.962;7.718;2022-12-29T00:33:08;3.47;;;3.10;;
3781;SDS011;6881;49.962;7.718;2022-12-29T00:35:57;6.40;;;3.30;;
3781;SDS011;6881;49.962;7.718;2022-12-29T00:38:24;3.20;;;2.90;;
3781;SDS011;6881;49.962;7.718;2022-12-29T00:41:08;3.00;;;2.63;;
3781;SDS011;6881;49.962;7.718;2022-12-29T00:43:52;4.07;;;3.50;;
3781;SDS011;6881;49.962;7.718;2022-12-29T00:46:35;3.33;;;2.90;;
3781;SDS011;6881;49.962;7.718;2022-12-29T00:49:02;3.60;;;2.53;;
3781;SDS011;6881;49.962;7.718;2022-12-29T00:51:46;3.13;;;2.83;;
3781;SDS011;6881;49.962;7.718;2022-12-29T00:54:12;4.17;;;3.30;;
3781;SDS011;6881;49.962;7.718;2022-12-29T00:56:37;3.40;;;3.10;;
3781;SDS011;6881;49.962;7.718;2022-12-29T00:59:04;3.57;;;2.70;;
3781;SDS011;6881;49.962;7.718;2022-12-29T01:01:31;2.80;;;2.20;;
3781;SDS011;6881;49.962;7.718;2022-12-29T01:03:56;3.70;;;2.67;;
3781;SDS011;6881;49.962;7.718;2022-12-29T01:06:21;3.27;;;2.83;;
3781;SDS011;6881;49.962;7.718;2022-12-29T01:08:48;5.03;;;2.70;;
3781;SDS011;6881;49.962;7.718;2022-12-29T01:11:33;3.10;;;2.47;;
3781;SDS011;6881;49.962;7.718;2022-12-29T01:13:58;5.03;;;3.17;;
3781;SDS011;6881;49.962;7.718;2022-12-29T01:16:23;2.67;;;2.43;;
3781;SDS011;6881;49.962;7.718;2022-12-29T01:18:49;2.53;;;2.30;;
3781;SDS011;6881;49.962;7.718;2022-12-29T01:21:14;2.70;;;2.40;;
3781;SDS011;6881;49.962;7.718;2022-12-29T01:23:39;2.20;;;2.03;;
3781;SDS011;6881;49.962;7.718;2022-12-29T01:26:08;5.53;;;2.53;;
3781;SDS011;6881;49.962;7.718;2022-12-29T01:28:35;2.60;;;2.40;;
3781;SDS011;6881;49.962;7.718;2022-12-29T01:31:01;3.13;;;2.50;;
3781;SDS011;6881;49.962;7.718;2022-12-29T01:33:26;2.37;;;2.17;;
3781;SDS011;6881;49.962;7.718;2022-12-29T01:35:51;2.47;;;2.27;;
3781;SDS011;6881;49.962;7.718;2022-12-29T01:38:17;3.40;;;2.70;;
3781;SDS011;6881;49.962;7.718;2022-12-29T01:40:43;2.47;;;2.27;;
3781;SDS011;6881;49.962;7.718;2022-12-29T01:43:12;2.47;;;2.27;;
3781;SDS011;6881;49.962;7.718;2022-12-29T01:45:38;2.37;;;2.17;;
3781;SDS011;6881;49.962;7.718;2022-12-29T01:48:08;2.53;;;2.33;;
3781;SDS011;6881;49.962;7.718;2022-12-29T01:50:45;3.90;;;2.47;;
3781;SDS011;6881;49.962;7.718;2022-12-29T01:53:16;2.90;;;2.20;;
3781;SDS011;6881;49.962;7.718;2022-12-29T01:55:55;3.33;;;1.97;;
3781;SDS011;6881;49.962;7.718;2022-12-29T01:58:24;2.30;;;2.00;;
3781;SDS011;6881;49.962;7.718;2022-12-29T02:00:52;2.53;;;2.07;;
3781;SDS011;6881;49.962;7.718;2022-12-29T02:03:17;3.83;;;2.17;;
3781;SDS011;6881;49.962;7.718;2022-12-29T02:08:33;2.33;;;2.10;;
3781;SDS011;6881;49.962;7.718;2022-12-29T02:10:59;1.60;;;1.37;;
3781;SDS011;6881;49.962;7.718;2022-12-29T02:13:25;2.37;;;1.97;;
3781;SDS011;6881;49.962;7.718;2022-12-29T02:20:56;2.93;;;2.20;;
3781;SDS011;6881;49.962;7.718;2022-12-29T02:37:13;3.17;;;2.43;;
3781;SDS011;6881;49.962;7.718;2022-12-29T02:44:55;2.40;;;2.20;;
3781;SDS011;6881;49.962;7.718;2022-12-29T02:50:20;3.43;;;2.50;;
3781;SDS011;6881;49.962;7.718;2022-12-29T02:52:58;2.10;;;1.40;;
3781;SDS011;6881;49.962;7.718;2022-12-29T02:55:25;3.13;;;2.17;;
3781;SDS011;6881;49.962;7.718;2022-12-29T03:03:28;2.37;;;2.17;;
3781;SDS011;6881;49.962;7.718;2022-12-29T03:06:01;1.97;;;1.50;;
3781;SDS011;6881;49.962;7.718;2022-12-29T03:11:09;2.60;;;1.60;;
3781;SDS011;6881;49.962;7.718;2022-12-29T03:13:59;2.20;;;2.00;;
3781;SDS011;6881;49.962;7.718;2022-12-29T03:16:49;2.00;;;1.73;;
3781;SDS011;6881;49.962;7.718;2022-12-29T03:19:32;2.30;;;2.10;;
3781;SDS011;6881;49.962;7.718;2022-12-29T03:22:10;1.70;;;1.60;;
3781;SDS011;6881;49.962;7.718;2022-12-29T03:25:05;2.80;;;2.07;;
3781;SDS011;6881;49.962;7.718;2022-12-29T03:27:37;1.90;;;1.70;;
3781;SDS011;6881;49.962;7.718;2022-12-29T03:30:05;3.83;;;2.00;;
3781;SDS011;6881;49.962;7.718;2022-12-29T03:32:36;2.57;;;2.00;;
3781;SDS011;6881;49.962;7.718;2022-12-29T03:35:04;3.83;;;2.73;;
3781;SDS011;6881;49.962;7.718;2022-12-29T03:37:35;2.20;;;1.87;;
3781;SDS011;6881;49.962;7.718;2022-12-29T03:40:04;3.50;;;2.00;;
3781;SDS011;6881;49.962;7.718;2022-12-29T03:42:31;1.77;;;1.67;;
3781;SDS011;6881;49.962;7.718;2022-12-29T03:44:57;2.67;;;2.47;;
3781;SDS011;6881;49.962;7.718;2022-12-29T03:47:23;2.50;;;2.30;;
3781;SDS011;6881;49.962;7.718;2022-12-29T03:49:49;3.83;;;2.00;;
3781;SDS011;6881;49.962;7.718;2022-12-29T03:52:15;2.93;;;2.13;;
3781;SDS011;6881;49.962;7.718;2022-12-29T03:54:41;3.97;;;2.10;;
3781;SDS011;6881;49.962;7.718;2022-12-29T03:57:06;2.63;;;2.30;;
3781;SDS011;6881;49.962;7.718;2022-12-29T03:59:32;4.30;;;2.27;;
3781;SDS011;6881;49.962;7.718;2022-12-29T04:01:57;2.93;;;1.83;;
3781;SDS011;6881;49.962;7.718;2022-12-29T04:04:22;4.17;;;2.30;;
3781;SDS011;6881;49.962;7.718;2022-12-29T04:06:48;3.20;;;2.07;;
3781;SDS011;6881;49.962;7.718;2022-12-29T04:09:13;4.23;;;2.50;;
3781;SDS011;6881;49.962;7.718;2022-12-29T04:11:38;4.10;;;2.97;;
3781;SDS011;6881;49.962;7.718;2022-12-29T04:14:04;3.63;;;2.80;;
3781;SDS011;6881;49.962;7.718;2022-12-29T04:16:29;2.50;;;2.30;;
3781;SDS011;6881;49.962;7.718;2022-12-29T04:18:54;2.70;;;2.40;;
3781;SDS011;6881;49.962;7.718;2022-12-29T04:21:20;2.80;;;2.50;;
3781;SDS011;6881;49.962;7.718;2022-12-29T04:23:45;4.10;;;2.83;;
3781;SDS011;6881;49.962;7.718;2022-12-29T04:26:10;4.90;;;2.73;;
3781;SDS011;6881;49.962;7.718;2022-12-29T04:28:36;9.27;;;2.93;;
3781;SDS011;6881;49.962;7.718;2022-12-29T04:31:02;4.20;;;2.53;;
3781;SDS011;6881;49.962;7.718;2022-12-29T04:33:28;3.30;;;2.60;;
3781;SDS011;6881;49.962;7.718;2022-12-29T04:35:54;2.60;;;2.30;;
3781;SDS011;6881;49.962;7.718;2022-12-29T04:38:19;7.43;;;2.20;;
3781;SDS011;6881;49.962;7.718;2022-12-29T04:40:45;7.60;;;2.53;;
3781;SDS011;6881;49.962;7.718;2022-12-29T04:43:11;2.60;;;2.40;;
3781;SDS011;6881;49.962;7.718;2022-12-29T04:45:36;2.87;;;2.37;;
3781;SDS011;6881;49.962;7.718;2022-12-29T04:48:02;4.07;;;3.00;;
3781;SDS011;6881;49.962;7.718;2022-12-29T04:50:27;2.90;;;2.27;;
3781;SDS011;6881;49.962;7.718;2022-12-29T04:52:53;4.53;;;2.90;;
3781;SDS011;6881;49.962;7.718;2022-12-29T04:55:19;3.90;;;2.27;;
3781;SDS011;6881;49.962;7.718;2022-12-29T04:57:44;3.73;;;2.83;;
3781;SDS011;6881;49.962;7.718;2022-12-29T05:00:09;2.80;;;2.17;;
3781;SDS011;6881;49.962;7.718;2022-12-29T05:02:36;3.10;;;2.60;;
3781;SDS011;6881;49.962;7.718;2022-12-29T05:05:02;2.43;;;2.23;;
3781;SDS011;6881;49.962;7.718;2022-12-29T05:07:27;3.63;;;2.10;;
3781;SDS011;6881;49.962;7.718;2022-12-29T05:09:53;3.80;;;2.47;;
3781;SDS011;6881;49.962;7.718;2022-12-29T05:12:18;2.97;;;2.70;;
3781;SDS011;6881;49.962;7.718;2022-12-29T05:14:43;3.70;;;2.90;;
3781;SDS011;6881;49.962;7.718;2022-12-29T05:17:09;3.30;;;3.00;;
3781;SDS011;6881;49.962;7.718;2022-12-29T05:19:34;2.47;;;2.23;;
3781;SDS011;6881;49.962;7.718;2022-12-29T05:21:59;4.70;;;3.07;;
3781;SDS011;6881;49.962;7.718;2022-12-29T05:24:25;3.10;;;2.80;;
3781;SDS011;6881;49.962;7.718;2022-12-29T05:26:50;2.30;;;2.07;;
3781;SDS011;6881;49.962;7.718;2022-12-29T05:29:15;3.63;;;2.53;;
3781;SDS011;6881;49.962;7.718;2022-12-29T05:31:41;4.77;;;2.80;;
3781;SDS011;6881;49.962;7.718;2022-12-29T05:34:06;4.40;;;4.00;;
3781;SDS011;6881;49.962;7.718;2022-12-29T05:36:31;4.07;;;2.17;;
3781;SDS011;6881;49.962;7.718;2022-12-29T05:38:57;3.30;;;2.90;;
3781;SDS011;6881;49.962;7.718;2022-12-29T05:41:22;4.70;;;2.90;;
3781;SDS011;6881;49.962;7.718;2022-12-29T05:43:48;8.53;;;3.77;;
3781;SDS011;6881;49.962;7.718;2022-12-29T05:46:13;3.97;;;3.10;;
3781;SDS011;6881;49.962;7.718;2022-12-29T05:48:39;5.10;;;2.90;;
3781;SDS011;6881;49.962;7.718;2022-12-29T05:51:04;4.40;;;3.40;;
3781;SDS011;6881;49.962;7.718;2022-12-29T05:53:30;3.27;;;2.97;;
3781;SDS011;6881;49.962;7.718;2022-12-29T05:55:55;3.30;;;2.80;;
3781;SDS011;6881;49.962;7.718;2022-12-29T05:58:20;5.10;;;3.30;;
3781;SDS011;6881;49.962;7.718;2022-12-29T06:00:46;6.73;;;3.47;;
3781;SDS011;6881;49.962;7.718;2022-12-29T06:03:11;4.27;;;3.40;;
3781;SDS011;6881;49.962;7.718;2022-12-29T06:05:36;5.13;;;3.03;;
3781;SDS011;6881;49.962;7.718;2022-12-29T06:08:02;2.60;;;2.27;;
3781;SDS011;6881;49.962;7.718;2022-12-29T06:10:28;4.13;;;2.73;;
3781;SDS011;6881;49.962;7.718;2022-12-29T06:12:53;3.33;;;2.60;;
3781;SDS011;6881;49.962;7.718;2022-12-29T06:15:19;3.40;;;2.40;;
3781;SDS011;6881;49.962;7.718;2022-12-29T06:17:44;3.10;;;2.60;;
3781;SDS011;6881;49.962;7.718;2022-12-29T06:20:10;2.73;;;2.07;;
3781;SDS011;6881;49.962;7.718;2022-12-29T06:22:35;3.47;;;2.43;;
3781;SDS011;6881;49.962;7.718;2022-12-29T06:25:01;3.47;;;2.10;;
3781;SDS011;6881;49.962;7.718;2022-12-29T06:27:27;1.77;;;1.47;;
3781;SDS011;6881;49.962;7.718;2022-12-29T06:29:52;2.70;;;2.07;;
3781;SDS011;6881;49.962;7.718;2022-12-29T06:32:18;3.40;;;2.70;;
3781;SDS011;6881;49.962;7.718;2022-12-29T06:34:43;4.20;;;3.23;;
3781;SDS011;6881;49.962;7.718;2022-12-29T06:37:09;5.27;;;4.27;;
3781;SDS011;6881;49.962;7.718;2022-12-29T06:39:35;5.63;;;4.07;;
3781;SDS011;6881;49.962;7.718;2022-12-29T06:42:00;5.63;;;3.17;;
3781;SDS011;6881;49.962;7.718;2022-12-29T06:44:26;5.53;;;3.17;;
3781;SDS011;6881;49.962;7.718;2022-12-29T06:46:51;4.77;;;3.00;;
3781;SDS011;6881;49.962;7.718;2022-12-29T06:49:16;4.10;;;3.43;;
3781;SDS011;6881;49.962;7.718;2022-12-29T06:51:42;5.23;;;3.40;;
3781;SDS011;6881;49.962;7.718;2022-12-29T06:54:07;3.90;;;2.80;;
3781;SDS011;6881;49.962;7.718;2022-12-29T06:56:32;8.63;;;3.90;;
3781;SDS011;6881;49.962;7.718;2022-12-29T06:58:58;4.83;;;3.77;;
3781;SDS011;6881;49.962;7.718;2022-12-29T07:01:25;4.90;;;4.40;;
3781;SDS011;6881;49.962;7.718;2022-12-29T07:03:50;5.90;;;3.87;;
3781;SDS011;6881;49.962;7.718;2022-12-29T07:06:15;7.60;;;4.00;;
3781;SDS011;6881;49.962;7.718;2022-12-29T07:08:41;3.67;;;3.23;;
3781;SDS011;6881;49.962;7.718;2022-12-29T07:11:06;5.23;;;3.20;;
3781;SDS011;6881;49.962;7.718;2022-12-29T07:13:32;5.73;;;3.70;;
3781;SDS011;6881;49.962;7.718;2022-12-29T07:15:57;5.13;;;3.50;;
3781;SDS011;6881;49.962;7.718;2022-12-29T07:18:22;5.90;;;3.30;;
3781;SDS011;6881;49.962;7.718;2022-12-29T07:20:47;5.90;;;4.40;;
3781;SDS011;6881;49.962;7.718;2022-12-29T07:23:13;5.40;;;3.73;;
3781;SDS011;6881;49.962;7.718;2022-12-29T07:25:38;4.97;;;3.80;;
3781;SDS011;6881;49.962;7.718;2022-12-29T07:28:06;5.03;;;4.00;;
3781;SDS011;6881;49.962;7.718;2022-12-29T07:30:31;5.67;;;4.90;;
3781;SDS011;6881;49.962;7.718;2022-12-29T07:32:56;4.80;;;3.00;;
3781;SDS011;6881;49.962;7.718;2022-12-29T07:35:22;3.73;;;3.00;;
3781;SDS011;6881;49.962;7.718;2022-12-29T07:37:47;3.07;;;2.53;;
3781;SDS011;6881;49.962;7.718;2022-12-29T07:40:13;4.63;;;2.80;;
3781;SDS011;6881;49.962;7.718;2022-12-29T07:42:38;5.50;;;2.90;;
3781;SDS011;6881;49.962;7.718;2022-12-29T07:45:03;3.27;;;2.83;;
3781;SDS011;6881;49.962;7.718;2022-12-29T07:47:29;4.23;;;3.27;;
3781;SDS011;6881;49.962;7.718;2022-12-29T07:49:55;3.97;;;3.57;;
3781;SDS011;6881;49.962;7.718;2022-12-29T07:52:20;6.57;;;4.07;;
3781;SDS011;6881;49.962;7.718;2022-12-29T07:54:45;3.40;;;3.10;;
3781;SDS011;6881;49.962;7.718;2022-12-29T07:57:11;3.43;;;3.13;;
3781;SDS011;6881;49.962;7.718;2022-12-29T07:59:36;4.23;;;3.20;;
3781;SDS011;6881;49.962;7.718;2022-12-29T08:02:01;4.07;;;3.07;;
3781;SDS011;6881;49.962;7.718;2022-12-29T08:04:27;6.00;;;3.17;;
3781;SDS011;6881;49.962;7.718;2022-12-29T08:06:52;4.70;;;2.80;;
3781;SDS011;6881;49.962;7.718;2022-12-29T08:09:17;3.03;;;2.60;;
3781;SDS011;6881;49.962;7.718;2022-12-29T08:11:43;3.00;;;2.50;;
3781;SDS011;6881;49.962;7.718;2022-12-29T08:14:09;4.53;;;2.50;;
3781;SDS011;6881;49.962;7.718;2022-12-29T08:16:34;4.27;;;3.63;;
3781;SDS011;6881;49.962;7.718;2022-12-29T08:19:00;2.63;;;2.43;;
3781;SDS011;6881;49.962;7.718;2022-12-29T08:21:27;3.00;;;2.43;;
3781;SDS011;6881;49.962;7.718;2022-12-29T08:23:52;3.93;;;3.00;;
3781;SDS011;6881;49.962;7.718;2022-12-29T08:26:18;3.30;;;2.23;;
3781;SDS011;6881;49.962;7.718;2022-12-29T08:28:43;4.87;;;2.80;;
3781;SDS011;6881;49.962;7.718;2022-12-29T08:31:08;3.33;;;2.37;;
3781;SDS011;6881;49.962;7.718;2022-12-29T08:33:34;4.80;;;3.70;;
3781;SDS011;6881;49.962;7.718;2022-12-29T08:36:00;3.10;;;2.13;;
3781;SDS011;6881;49.962;7.718;2022-12-29T08:38:26;7.70;;;3.40;;
3781;SDS011;6881;49.962;7.718;2022-12-29T08:40:53;4.53;;;3.13;;
3781;SDS011;6881;49.962;7.718;2022-12-29T08:43:18;3.90;;;2.70;;
3781;SDS011;6881;49.962;7.718;2022-12-29T08:45:43;4.17;;;2.90;;
3781;SDS011;6881;49.962;7.718;2022-12-29T08:48:09;7.20;;;2.70;;
3781;SDS011;6881;49.962;7.718;2022-12-29T08:50:34;3.70;;;3.27;;
3781;SDS011;6881;49.962;7.718;2022-12-29T08:52:59;5.90;;;2.83;;
3781;SDS011;6881;49.962;7.718;2022-12-29T08:55:25;5.23;;;3.83;;
3781;SDS011;6881;49.962;7.718;2022-12-29T08:57:50;9.93;;;3.87;;
3781;SDS011;6881;49.962;7.718;2022-12-29T09:00:17;3.53;;;2.27;;
3781;SDS011;6881;49.962;7.718;2022-12-29T09:02:42;3.57;;;2.30;;
3781;SDS011;6881;49.962;7.718;2022-12-29T09:05:08;5.37;;;3.20;;
3781;SDS011;6881;49.962;7.718;2022-12-29T09:07:33;3.73;;;2.43;;
3781;SDS011;6881;49.962;7.718;2022-12-29T09:09:59;4.40;;;2.73;;
3781;SDS011;6881;49.962;7.718;2022-12-29T09:12:24;4.30;;;3.50;;
3781;SDS011;6881;49.962;7.718;2022-12-29T09:14:49;1.00;;;0.90;;
3781;SDS011;6881;49.962;7.718;2022-12-29T09:17:15;2.80;;;2.07;;
3781;SDS011;6881;49.962;7.718;2022-12-29T09:19:59;3.17;;;1.97;;
3781;SDS011;6881;49.962;7.718;2022-12-29T09:22:24;2.47;;;1.53;;
3781;SDS011;6881;49.962;7.718;2022-12-29T09:24:49;3.10;;;1.40;;
3781;SDS011;6881;49.962;7.718;2022-12-29T09:27:15;1.40;;;1.00;;
3781;SDS011;6881;49.962;7.718;2022-12-29T09:29:40;1.47;;;1.00;;
3781;SDS011;6881;49.962;7.718;2022-12-29T09:32:05;1.70;;;1.47;;
3781;SDS011;6881;49.962;7.718;2022-12-29T09:34:31;1.20;;;1.10;;
3781;SDS011;6881;49.962;7.718;2022-12-29T09:36:56;1.53;;;0.83;;
3781;SDS011;6881;49.962;7.718;2022-12-29T09:39:22;1.23;;;1.00;;
3781;SDS011;6881;49.962;7.718;2022-12-29T09:42:13;2.20;;;0.90;;
3781;SDS011;6881;49.962;7.718;2022-12-29T09:47:18;2.20;;;0.97;;
3781;SDS011;6881;49.962;7.718;2022-12-29T09:49:47;2.47;;;0.80;;
3781;SDS011;6881;49.962;7.718;2022-12-29T09:52:36;2.93;;;1.00;;
3781;SDS011;6881;49.962;7.718;2022-12-29T09:55:31;1.73;;;1.10;;
3781;SDS011;6881;49.962;7.718;2022-12-29T09:58:12;1.43;;;0.70;;
3781;SDS011;6881;49.962;7.718;2022-12-29T10:00:44;0.90;;;0.60;;
3781;SDS011;6881;49.962;7.718;2022-12-29T10:03:16;1.50;;;0.60;;
3781;SDS011;6881;49.962;7.718;2022-12-29T10:05:47;1.20;;;0.83;;
3781;SDS011;6881;49.962;7.718;2022-12-29T10:11:26;0.83;;;0.70;;
3781;SDS011;6881;49.962;7.718;2022-12-29T10:17:04;0.50;;;0.30;;
3781;SDS011;6881;49.962;7.718;2022-12-29T10:19:48;1.87;;;0.60;;
3781;SDS011;6881;49.962;7.718;2022-12-29T10:24:48;0.80;;;0.60;;
3781;SDS011;6881;49.962;7.718;2022-12-29T10:27:16;0.70;;;0.50;;
3781;SDS011;6881;49.962;7.718;2022-12-29T10:29:48;1.50;;;1.03;;
3781;SDS011;6881;49.962;7.718;2022-12-29T10:32:19;1.87;;;1.10;;
3781;SDS011;6881;49.962;7.718;2022-12-29T10:35:03;2.00;;;0.80;;
3781;SDS011;6881;49.962;7.718;2022-12-29T10:37:39;1.20;;;0.73;;
3781;SDS011;6881;49.962;7.718;2022-12-29T10:40:14;1.03;;;0.67;;
3781;SDS011;6881;49.962;7.718;2022-12-29T10:42:45;1.00;;;0.70;;
3781;SDS011;6881;49.962;7.718;2022-12-29T10:45:12;1.43;;;0.60;;
3781;SDS011;6881;49.962;7.718;2022-12-29T10:47:40;0.63;;;0.50;;
3781;SDS011;6881;49.962;7.718;2022-12-29T10:50:12;2.80;;;1.10;;
3781;SDS011;6881;49.962;7.718;2022-12-29T10:52:37;3.60;;;0.90;;
3781;SDS011;6881;49.962;7.718;2022-12-29T10:57:44;2.00;;;0.97;;
3781;SDS011;6881;49.962;7.718;2022-12-29T11:00:12;1.00;;;0.57;;
3781;SDS011;6881;49.962;7.718;2022-12-29T11:05:46;1.87;;;0.80;;
3781;SDS011;6881;49.962;7.718;2022-12-29T11:08:16;2.40;;;0.77;;
3781;SDS011;6881;49.962;7.718;2022-12-29T11:10:43;1.30;;;1.07;;
3781;SDS011;6881;49.962;7.718;2022-12-29T11:13:17;2.87;;;1.60;;
3781;SDS011;6881;49.962;7.718;2022-12-29T11:15:47;1.80;;;1.10;;
3781;SDS011;6881;49.962;7.718;2022-12-29T11:18:21;5.10;;;1.20;;
3781;SDS011;6881;49.962;7.718;2022-12-29T11:20:48;1.30;;;1.00;;
3781;SDS011;6881;49.962;7.718;2022-12-29T11:23:23;2.23;;;1.27;;
3781;SDS011;6881;49.962;7.718;2022-12-29T11:26:06;2.00;;;1.33;;
3781;SDS011;6881;49.962;7.718;2022-12-29T11:28:31;3.60;;;1.70;;
3781;SDS011;6881;49.962;7.718;2022-12-29T11:31:01;2.60;;;1.87;;
3781;SDS011;6881;49.962;7.718;2022-12-29T11:33:28;104.23;;;37.67;;
3781;SDS011;6881;49.962;7.718;2022-12-29T11:35:57;84.70;;;34.23;;
3781;SDS011;6881;49.962;7.718;2022-12-29T11:38:26;35.57;;;17.20;;
3781;SDS011;6881;49.962;7.718;2022-12-29T11:40:57;14.03;;;6.70;;
3781;SDS011;6881;49.962;7.718;2022-12-29T11:43:41;23.27;;;10.20;;
3781;SDS011;6881;49.962;7.718;2022-12-29T11:46:14;1.57;;;1.27;;
3781;SDS011;6881;49.962;7.718;2022-12-29T11:48:41;2.63;;;1.80;;
3781;SDS011;6881;49.962;7.718;2022-12-29T11:51:06;2.17;;;0.90;;
3781;SDS011;6881;49.962;7.718;2022-12-29T11:53:37;2.50;;;1.67;;
3781;SDS011;6881;49.962;7.718;2022-12-29T11:56:49;1.20;;;1.00;;
3781;SDS011;6881;49.962;7.718;2022-12-29T11:58:58;1.47;;;0.80;;
3781;SDS011;6881;49.962;7.718;2022-12-29T12:01:50;1.53;;;0.80;;
3781;SDS011;6881;49.962;7.718;2022-12-29T12:04:16;4.10;;;1.00;;
3781;SDS011;6881;49.962;7.718;2022-12-29T12:06:44;3.40;;;1.10;;
3781;SDS011;6881;49.962;7.718;2022-12-29T12:09:16;2.17;;;0.97;;
3781;SDS011;6881;49.962;7.718;2022-12-29T12:11:47;0.93;;;0.60;;
3781;SDS011;6881;49.962;7.718;2022-12-29T12:16:57;2.33;;;0.67;;
3781;SDS011;6881;49.962;7.718;2022-12-29T12:22:07;2.90;;;0.80;;
3781;SDS011;6881;49.962;7.718;2022-12-29T12:24:37;2.43;;;1.10;;
3781;SDS011;6881;49.962;7.718;2022-12-29T12:38:26;1.87;;;0.93;;
3781;SDS011;6881;49.962;7.718;2022-12-29T12:41:12;3.00;;;1.20;;
3781;SDS011;6881;49.962;7.718;2022-12-29T12:43:39;1.90;;;0.90;;
3781;SDS011;6881;49.962;7.718;2022-12-29T12:48:48;2.43;;;1.03;;
3781;SDS011;6881;49.962;7.718;2022-12-29T12:54:42;3.10;;;0.87;;
3781;SDS011;6881;49.962;7.718;2022-12-29T13:13:18;2.03;;;0.67;;
3781;SDS011;6881;49.962;7.718;2022-12-29T13:15:57;1.27;;;0.80;;
3781;SDS011;6881;49.962;7.718;2022-12-29T13:18:44;1.20;;;0.67;;
3781;SDS011;6881;49.962;7.718;2022-12-29T13:36:51;4.53;;;2.70;;
3781;SDS011;6881;49.962;7.718;2022-12-29T13:39:21;4.17;;;2.80;;
3781;SDS011;6881;49.962;7.718;2022-12-29T13:41:56;5.20;;;3.00;;
3781;SDS011;6881;49.962;7.718;2022-12-29T13:46:47;5.80;;;2.77;;
3781;SDS011;6881;49.962;7.718;2022-12-29T13:49:17;1.97;;;1.50;;
3781;SDS011;6881;49.962;7.718;2022-12-29T13:51:54;4.47;;;2.33;;
3781;SDS011;6881;49.962;7.718;2022-12-29T13:56:59;3.93;;;1.90;;
3781;SDS011;6881;49.962;7.718;2022-12-29T14:07:27;5.50;;;2.13;;
3781;SDS011;6881;49.962;7.718;2022-12-29T14:09:54;4.70;;;2.43;;
3781;SDS011;6881;49.962;7.718;2022-12-29T14:17:36;2.43;;;1.40;;
3781;SDS011;6881;49.962;7.718;2022-12-29T14:20:02;6.63;;;1.33;;
3781;SDS011;6881;49.962;7.718;2022-12-29T14:22:29;2.43;;;1.30;;
3781;SDS011;6881;49.962;7.718;2022-12-29T14:24:55;2.43;;;1.60;;
3781;SDS011;6881;49.962;7.718;2022-12-29T14:29:46;4.20;;;2.40;;
3781;SDS011;6881;49.962;7.718;2022-12-29T14:34:51;7.33;;;2.63;;
3781;SDS011;6881;49.962;7.718;2022-12-29T14:37:25;3.60;;;1.60;;
3781;SDS011;6881;49.962;7.718;2022-12-29T14:40:03;3.90;;;2.30;;
3781;SDS011;6881;49.962;7.718;2022-12-29T14:42:48;5.03;;;2.20;;
3781;SDS011;6881;49.962;7.718;2022-12-29T14:52:50;5.93;;;2.60;;
3781;SDS011;6881;49.962;7.718;2022-12-29T14:58:07;2.40;;;1.33;;
3781;SDS011;6881;49.962;7.718;2022-12-29T15:00:37;4.60;;;1.60;;
3781;SDS011;6881;49.962;7.718;2022-12-29T15:03:07;2.67;;;1.10;;
3781;SDS011;6881;49.962;7.718;2022-12-29T15:08:07;3.90;;;1.90;;
3781;SDS011;6881;49.962;7.718;2022-12-29T15:10:36;5.47;;;1.80;;
3781;SDS011;6881;49.962;7.718;2022-12-29T15:13:05;2.63;;;1.90;;
3781;SDS011;6881;49.962;7.718;2022-12-29T15:15:36;3.53;;;1.90;;
3781;SDS011;6881;49.962;7.718;2022-12-29T15:20:46;7.13;;;3.50;;
3781;SDS011;6881;49.962;7.718;2022-12-29T15:23:15;7.50;;;3.90;;
3781;SDS011;6881;49.962;7.718;2022-12-29T15:25:50;5.07;;;2.93;;
3781;SDS011;6881;49.962;7.718;2022-12-29T15:28:19;3.20;;;1.83;;
3781;SDS011;6881;49.962;7.718;2022-12-29T15:30:52;4.93;;;1.77;;
3781;SDS011;6881;49.962;7.718;2022-12-29T15:33:21;4.87;;;2.40;;
3781;SDS011;6881;49.962;7.718;2022-12-29T15:35:52;6.40;;;5.13;;
3781;SDS011;6881;49.962;7.718;2022-12-29T15:38:22;7.30;;;2.83;;
3781;SDS011;6881;49.962;7.718;2022-12-29T15:41:02;4.63;;;2.03;;
3781;SDS011;6881;49.962;7.718;2022-12-29T15:46:02;7.97;;;4.20;;
3781;SDS011;6881;49.962;7.718;2022-12-29T15:48:27;7.10;;;2.37;;
3781;SDS011;6881;49.962;7.718;2022-12-29T15:50:53;3.67;;;1.50;;
3781;SDS011;6881;49.962;7.718;2022-12-29T15:53:37;5.50;;;1.73;;
3781;SDS011;6881;49.962;7.718;2022-12-29T15:56:06;3.33;;;1.57;;
3781;SDS011;6881;49.962;7.718;2022-12-29T15:58:39;5.13;;;1.50;;
3781;SDS011;6881;49.962;7.718;2022-12-29T16:01:15;5.97;;;2.47;;
3781;SDS011;6881;49.962;7.718;2022-12-29T16:03:44;6.10;;;1.93;;
3781;SDS011;6881;49.962;7.718;2022-12-29T16:06:10;7.83;;;3.47;;
3781;SDS011;6881;49.962;7.718;2022-12-29T16:11:33;10.23;;;3.27;;
3781;SDS011;6881;49.962;7.718;2022-12-29T16:14:01;4.63;;;2.57;;
3781;SDS011;6881;49.962;7.718;2022-12-29T16:18:54;2.70;;;1.67;;
3781;SDS011;6881;49.962;7.718;2022-12-29T16:21:21;3.40;;;1.93;;
3781;SDS011;6881;49.962;7.718;2022-12-29T16:23:50;3.10;;;2.00;;
3781;SDS011;6881;49.962;7.718;2022-12-29T16:26:18;10.80;;;5.10;;
3781;SDS011;6881;49.962;7.718;2022-12-29T16:28:46;6.87;;;3.10;;
3781;SDS011;6881;49.962;7.718;2022-12-29T16:31:56;8.90;;;3.77;;
3781;SDS011;6881;49.962;7.718;2022-12-29T16:39:34;3.20;;;2.13;;
3781;SDS011;6881;49.962;7.718;2022-12-29T16:45:04;3.93;;;2.80;;
3781;SDS011;6881;49.962;7.718;2022-12-29T16:47:34;3.27;;;1.83;;
3781;SDS011;6881;49.962;7.718;2022-12-29T16:50:06;5.90;;;1.83;;
3781;SDS011;6881;49.962;7.718;2022-12-29T16:52:36;5.97;;;1.90;;
3781;SDS011;6881;49.962;7.718;2022-12-29T16:55:02;6.10;;;1.90;;
3781;SDS011;6881;49.962;7.718;2022-12-29T16:57:28;4.23;;;1.90;;
3781;SDS011;6881;49.962;7.718;2022-12-29T16:59:57;5.03;;;2.60;;
3781;SDS011;6881;49.962;7.718;2022-12-29T17:02:26;8.00;;;3.10;;
3781;SDS011;6881;49.962;7.718;2022-12-29T17:04:53;3.27;;;2.43;;
3781;SDS011;6881;49.962;7.718;2022-12-29T17:07:27;7.00;;;3.50;;
3781;SDS011;6881;49.962;7.718;2022-12-29T17:09:53;9.13;;;5.70;;
3781;SDS011;6881;49.962;7.718;2022-12-29T17:12:26;7.57;;;4.37;;
3781;SDS011;6881;49.962;7.718;2022-12-29T17:14:54;9.30;;;4.67;;
3781;SDS011;6881;49.962;7.718;2022-12-29T17:19:56;7.20;;;4.53;;
3781;SDS011;6881;49.962;7.718;2022-12-29T17:22:27;5.67;;;3.20;;
3781;SDS011;6881;49.962;7.718;2022-12-29T17:24:53;4.73;;;3.03;;
3781;SDS011;6881;49.962;7.718;2022-12-29T17:27:21;6.70;;;2.50;;
3781;SDS011;6881;49.962;7.718;2022-12-29T17:29:48;4.20;;;2.63;;
3781;SDS011;6881;49.962;7.718;2022-12-29T17:32:15;5.73;;;3.27;;
3781;SDS011;6881;49.962;7.718;2022-12-29T17:34:40;3.00;;;2.37;;
3781;SDS011;6881;49.962;7.718;2022-12-29T17:37:15;4.80;;;2.93;;
3781;SDS011;6881;49.962;7.718;2022-12-29T17:39:45;12.10;;;3.60;;
3781;SDS011;6881;49.962;7.718;2022-12-29T17:42:11;4.20;;;2.30;;
3781;SDS011;6881;49.962;7.718;2022-12-29T17:44:36;5.97;;;3.20;;
3781;SDS011;6881;49.962;7.718;2022-12-29T17:47:02;5.20;;;3.47;;
3781;SDS011;6881;49.962;7.718;2022-12-29T17:49:27;6.00;;;3.90;;
3781;SDS011;6881;49.962;7.718;2022-12-29T17:51:52;7.70;;;5.10;;
3781;SDS011;6881;49.962;7.718;2022-12-29T17:54:19;5.40;;;3.67;;
3781;SDS011;6881;49.962;7.718;2022-12-29T17:56:46;9.07;;;4.93;;
3781;SDS011;6881;49.962;7.718;2022-12-29T17:59:11;8.63;;;7.80;;
3781;SDS011;6881;49.962;7.718;2022-12-29T18:01:38;10.10;;;4.07;;
3781;SDS011;6881;49.962;7.718;2022-12-29T18:04:04;10.00;;;5.23;;
3781;SDS011;6881;49.962;7.718;2022-12-29T18:06:29;8.33;;;4.83;;
3781;SDS011;6881;49.962;7.718;2022-12-29T18:08:54;10.60;;;5.23;;
3781;SDS011;6881;49.962;7.718;2022-12-29T18:11:21;21.80;;;9.67;;
3781;SDS011;6881;49.962;7.718;2022-12-29T18:13:51;24.17;;;9.60;;